Time,TemperatureF,DewpointF,PressureIn,WindDirection,WindDirectionDegrees,WindSpeedMPH,WindSpeedGustMPH,Humidity,HourlyPrecipIn,Conditions,Clouds,dailyrainin,SoftwareType,DateUTC
2013-01-16 00:00:00,43.6,-9.5,30.07,North,0,0.0,0.0,2,0.00,,,0.00,WUHU216HW,2013-01-16 05:00:00,
2013-01-16 00:01:00,43.6,-9.5,30.07,North,0,0.0,0.0,2,0.00,,,0.00,WUHU216HW,2013-01-16 05:01:00,
2013-01-16 00:03:00,43.6,-9.5,30.07,North,0,0.0,0.0,2,0.00,,,0.00,WUHU216HW,2013-01-16 05:03:00,
2013-01-16 00:08:00,43.6,-9.5,30.07,North,0,0.0,0.0,2,0.00,,,0.00,WUHU216HW,2013-01-16 05:08:00,
2013-01-16 00:30:00,43.7,-9.4,30.06,North,0,0.0,0.0,2,0.00,,,0.00,WUHU216HW,2013-01-16 05:30:00,
2013-01-16 00:35:00,43.7,-9.4,30.06,North,0,0.0,0.0,2,0.00,,,0.00,WUHU216HW,2013-01-16 05:35:00,
2013-01-16 01:00:00,43.6,-9.5,30.05,North,0,0.0,0.0,2,0.00,,,0.00,WUHU216HW,2013-01-16 06:00:00,
2013-01-16 01:05:00,43.6,-9.5,30.05,North,0,0.0,0.0,2,0.00,,,0.00,WUHU216HW,2013-01-16 06:05:00,
2013-01-16 01:30:00,43.4,-9.6,30.06,North,0,0.0,0.0,1,0.00,,,0.00,WUHU216HW,2013-01-16 06:30:00,
2013-01-16 01:35:00,43.4,-9.6,30.06,North,0,0.0,0.0,1,0.00,,,0.00,WUHU216HW,2013-01-16 06:35:00,
2013-01-16 02:00:00,43.4,-9.6,30.06,North,0,0.0,0.0,1,0.00,,,0.00,WUHU216HW,2013-01-16 07:00:00,
2013-01-16 02:05:00,43.4,-9.6,30.06,North,0,0.0,0.0,1,0.00,,,0.00,WUHU216HW,2013-01-16 07:05:00,
2013-01-16 02:30:00,43.2,-9.8,30.07,North,0,0.0,0.0,1,0.00,,,0.00,WUHU216HW,2013-01-16 07:30:00,
2013-01-16 02:35:00,43.2,-9.8,30.07,North,0,0.0,0.0,1,0.00,,,0.00,WUHU216HW,2013-01-16 07:35:00,
2013-01-16 03:00:00,43.0,-9.9,30.05,North,0,0.0,0.0,1,0.00,,,0.00,WUHU216HW,2013-01-16 08:00:00,
2013-01-16 03:05:00,43.0,-9.9,30.05,North,0,0.0,0.0,1,0.00,,,0.00,WUHU216HW,2013-01-16 08:05:00,
2013-01-16 03:30:00,42.8,-10.1,30.05,North,0,0.0,0.0,1,0.00,,,0.00,WUHU216HW,2013-01-16 08:30:00,
2013-01-16 03:35:00,42.8,-10.1,30.05,North,0,0.0,0.0,1,0.00,,,0.00,WUHU216HW,2013-01-16 08:35:00,
2013-01-16 04:00:00,42.7,-10.2,30.04,North,0,0.0,0.0,1,0.01,,,0.00,WUHU216HW,2013-01-16 09:00:00,
2013-01-16 04:05:00,42.7,-10.2,30.04,North,0,0.0,0.0,1,0.01,,,0.00,WUHU216HW,2013-01-16 09:05:00,
2013-01-16 04:30:00,42.1,-10.6,30.04,North,0,0.0,0.0,2,0.01,,,0.01,WUHU216HW,2013-01-16 09:30:00,
2013-01-16 04:35:00,42.1,-10.6,30.04,North,0,0.0,0.0,2,0.01,,,0.01,WUHU216HW,2013-01-16 09:35:00,
2013-01-16 05:00:00,41.0,-11.3,30.04,North,0,0.0,0.0,5,0.02,,,0.01,WUHU216HW,2013-01-16 10:00:00,
2013-01-16 05:05:00,41.0,-11.3,30.04,North,0,0.0,0.0,5,0.02,,,0.01,WUHU216HW,2013-01-16 10:05:00,
2013-01-16 05:30:00,41.2,-11.2,30.02,North,0,0.0,0.0,5,0.04,,,0.03,WUHU216HW,2013-01-16 10:30:00,
2013-01-16 05:35:00,41.2,-11.2,30.02,North,0,0.0,0.0,5,0.04,,,0.03,WUHU216HW,2013-01-16 10:35:00,
2013-01-16 06:00:00,41.2,-11.2,30.01,North,0,0.0,0.0,5,0.02,,,0.05,WUHU216HW,2013-01-16 11:00:00,
2013-01-16 06:05:00,41.2,-11.2,30.01,North,0,0.0,0.0,5,0.02,,,0.05,WUHU216HW,2013-01-16 11:05:00,
2013-01-16 06:30:00,41.2,-11.2,30.02,North,0,0.0,0.0,6,0.00,,,0.05,WUHU216HW,2013-01-16 11:30:00,
2013-01-16 06:35:00,41.2,-11.2,30.02,North,0,0.0,0.0,6,0.00,,,0.05,WUHU216HW,2013-01-16 11:35:00,
2013-01-16 07:00:00,41.4,-11.1,30.02,North,0,0.0,0.0,6,0.00,,,0.05,WUHU216HW,2013-01-16 12:00:00,
2013-01-16 07:05:00,41.4,-11.1,30.02,North,0,0.0,0.0,6,0.00,,,0.05,WUHU216HW,2013-01-16 12:05:00,
2013-01-16 07:30:00,41.4,-11.1,30.03,North,0,0.0,0.0,7,0.00,,,0.05,WUHU216HW,2013-01-16 12:30:00,
2013-01-16 07:35:00,41.4,-11.1,30.03,North,0,0.0,0.0,7,0.00,,,0.05,WUHU216HW,2013-01-16 12:35:00,
2013-01-16 08:00:00,41.4,-11.1,30.03,North,0,0.0,0.0,6,0.00,,,0.05,WUHU216HW,2013-01-16 13:00:00,
2013-01-16 08:05:00,41.4,-11.1,30.03,North,0,0.0,0.0,6,0.00,,,0.05,WUHU216HW,2013-01-16 13:05:00,
2013-01-16 08:30:00,41.8,-10.8,30.03,North,0,0.0,0.0,6,0.00,,,0.05,WUHU216HW,2013-01-16 13:30:00,
2013-01-16 08:35:00,41.8,-10.8,30.03,North,0,0.0,0.0,6,0.00,,,0.05,WUHU216HW,2013-01-16 13:35:00,
2013-01-16 09:00:00,42.1,-10.6,30.04,North,0,0.0,0.0,5,0.00,,,0.05,WUHU216HW,2013-01-16 14:00:00,
2013-01-16 09:05:00,42.1,-10.6,30.04,North,0,0.0,0.0,5,0.00,,,0.05,WUHU216HW,2013-01-16 14:05:00,
2013-01-16 09:30:00,42.3,-10.4,30.04,North,0,0.0,0.0,6,0.00,,,0.05,WUHU216HW,2013-01-16 14:30:00,
2013-01-16 09:35:00,42.3,-10.4,30.04,North,0,0.0,0.0,6,0.00,,,0.05,WUHU216HW,2013-01-16 14:35:00,
2013-01-16 10:00:00,42.3,-10.4,30.05,North,0,0.0,0.0,5,0.00,,,0.05,WUHU216HW,2013-01-16 15:00:00,
2013-01-16 10:05:00,42.3,-10.4,30.05,North,0,0.0,0.0,5,0.00,,,0.05,WUHU216HW,2013-01-16 15:05:00,
2013-01-16 10:30:00,42.7,-10.2,30.05,North,0,0.0,0.0,5,0.00,,,0.05,WUHU216HW,2013-01-16 15:30:00,
2013-01-16 10:35:00,42.7,-10.2,30.05,North,0,0.0,0.0,5,0.00,,,0.05,WUHU216HW,2013-01-16 15:35:00,
2013-01-16 11:00:00,42.3,-10.4,30.06,North,0,0.0,0.0,1,0.01,,,0.05,WUHU216HW,2013-01-16 16:00:00,
2013-01-16 11:05:00,42.3,-10.4,30.06,North,0,0.0,0.0,1,0.01,,,0.05,WUHU216HW,2013-01-16 16:05:00,
2013-01-16 11:30:00,42.3,-10.4,30.06,North,0,0.0,0.0,1,0.02,,,0.06,WUHU216HW,2013-01-16 16:30:00,
2013-01-16 11:35:00,42.3,-10.4,30.06,North,0,0.0,0.0,1,0.02,,,0.06,WUHU216HW,2013-01-16 16:35:00,
2013-01-16 12:00:00,42.1,-10.6,30.04,North,0,0.0,0.0,3,0.02,,,0.07,WUHU216HW,2013-01-16 17:00:00,
2013-01-16 12:05:00,42.1,-10.6,30.04,North,0,0.0,0.0,3,0.02,,,0.07,WUHU216HW,2013-01-16 17:05:00,
2013-01-16 12:30:00,42.8,-10.1,30.01,North,0,0.0,0.0,2,0.04,,,0.08,WUHU216HW,2013-01-16 17:30:00,
2013-01-16 12:35:00,42.8,-10.1,30.01,North,0,0.0,0.0,2,0.04,,,0.08,WUHU216HW,2013-01-16 17:35:00,
2013-01-16 13:00:00,44.1,-9.1,30.01,North,0,0.0,0.0,1,0.07,,,0.11,WUHU216HW,2013-01-16 18:00:00,
2013-01-16 13:05:00,44.1,-9.1,30.01,North,0,0.0,0.0,1,0.07,,,0.11,WUHU216HW,2013-01-16 18:05:00,
2013-01-16 13:30:00,45.7,-7.7,30.00,North,0,0.0,0.0,1,0.04,,,0.15,WUHU216HW,2013-01-16 18:30:00,
2013-01-16 13:35:00,45.7,-7.7,30.00,North,0,0.0,0.0,1,0.04,,,0.15,WUHU216HW,2013-01-16 18:35:00,
2013-01-16 14:00:00,45.9,-7.6,29.99,North,0,0.0,0.0,1,0.00,,,0.15,WUHU216HW,2013-01-16 19:00:00,
2013-01-16 14:05:00,45.9,-7.6,29.99,North,0,0.0,0.0,1,0.00,,,0.15,WUHU216HW,2013-01-16 19:05:00,
2013-01-16 14:30:00,46.8,-6.9,29.98,North,0,0.0,0.0,1,0.00,,,0.15,WUHU216HW,2013-01-16 19:30:00,
2013-01-16 14:35:00,46.8,-6.9,29.98,North,0,0.0,0.0,1,0.00,,,0.15,WUHU216HW,2013-01-16 19:35:00,
2013-01-16 15:00:00,47.5,-6.3,29.98,North,0,0.0,0.0,1,0.00,,,0.15,WUHU216HW,2013-01-16 20:00:00,
2013-01-16 15:05:00,47.5,-6.3,29.98,North,0,0.0,0.0,1,0.00,,,0.15,WUHU216HW,2013-01-16 20:05:00,
2013-01-16 15:30:00,47.7,-6.2,29.99,North,0,0.0,0.0,1,0.00,,,0.15,WUHU216HW,2013-01-16 20:30:00,
2013-01-16 15:35:00,47.7,-6.2,29.99,North,0,0.0,0.0,1,0.00,,,0.15,WUHU216HW,2013-01-16 20:35:00,
2013-01-16 16:00:00,48.1,-5.9,29.99,North,0,0.0,0.0,1,0.00,,,0.15,WUHU216HW,2013-01-16 21:00:00,
2013-01-16 16:05:00,48.1,-5.9,29.99,North,0,0.0,0.0,1,0.00,,,0.15,WUHU216HW,2013-01-16 21:05:00,
2013-01-16 16:30:00,48.6,-5.5,29.97,North,0,0.0,0.0,1,0.00,,,0.15,WUHU216HW,2013-01-16 21:30:00,
2013-01-16 16:35:00,48.6,-5.5,29.97,North,0,0.0,0.0,1,0.00,,,0.15,WUHU216HW,2013-01-16 21:35:00,
2013-01-16 17:00:00,48.6,-5.5,29.99,North,0,0.0,0.0,1,0.00,,,0.15,WUHU216HW,2013-01-16 22:00:00,
2013-01-16 17:05:00,48.6,-5.5,29.99,North,0,0.0,0.0,1,0.00,,,0.15,WUHU216HW,2013-01-16 22:05:00,
2013-01-16 17:30:00,48.6,-5.5,29.99,North,0,0.0,0.0,1,0.00,,,0.15,WUHU216HW,2013-01-16 22:30:00,
2013-01-16 17:35:00,48.6,-5.5,29.99,North,0,0.0,0.0,1,0.00,,,0.15,WUHU216HW,2013-01-16 22:35:00,
2013-01-16 18:00:00,48.6,-5.5,30.00,North,0,0.0,0.0,1,0.00,,,0.15,WUHU216HW,2013-01-16 23:00:00,
2013-01-16 18:05:00,48.6,-5.5,30.00,North,0,0.0,0.0,1,0.00,,,0.15,WUHU216HW,2013-01-16 23:05:00,
2013-01-16 18:30:00,48.6,-5.5,29.99,North,0,0.0,0.0,1,0.00,,,0.15,WUHU216HW,2013-01-16 23:30:00,
2013-01-16 18:35:00,48.6,-5.5,29.99,North,0,0.0,0.0,1,0.00,,,0.15,WUHU216HW,2013-01-16 23:35:00,
2013-01-16 19:00:00,48.6,-5.5,30.00,North,0,0.0,0.0,1,0.00,,,0.15,WUHU216HW,2013-01-17 00:00:00,
2013-01-16 19:05:00,48.6,-5.5,30.00,North,0,0.0,0.0,1,0.00,,,0.15,WUHU216HW,2013-01-17 00:05:00,
2013-01-16 19:30:00,48.6,-5.5,30.01,North,0,0.0,0.0,1,0.00,,,0.15,WUHU216HW,2013-01-17 00:30:00,
2013-01-16 19:35:00,48.6,-5.5,30.01,North,0,0.0,0.0,1,0.00,,,0.15,WUHU216HW,2013-01-17 00:35:00,
2013-01-16 19:55:00,48.6,-5.5,30.00,North,0,0.0,0.0,1,0.00,,,0.15,WUHU216HW,2013-01-17 00:55:00,
2013-01-16 20:00:00,48.6,-5.5,30.00,North,0,0.0,0.0,1,0.00,,,0.15,WUHU216HW,2013-01-17 01:00:00,
2013-01-16 20:05:00,48.8,-5.4,30.00,North,0,0.0,0.0,1,0.00,,,0.15,WUHU216HW,2013-01-17 01:05:00,
2013-01-16 20:10:00,48.8,-5.4,30.00,North,0,0.0,0.0,1,0.00,,,0.15,WUHU216HW,2013-01-17 01:10:00,
2013-01-16 20:15:00,48.8,-5.4,30.00,North,0,0.0,0.0,1,0.00,,,0.15,WUHU216HW,2013-01-17 01:15:00,
2013-01-16 20:20:00,49.0,-5.2,29.99,North,0,0.0,0.0,1,0.00,,,0.15,WUHU216HW,2013-01-17 01:20:00,
2013-01-16 20:25:00,48.8,-5.4,29.99,North,0,0.0,0.0,1,0.00,,,0.15,WUHU216HW,2013-01-17 01:25:00,
2013-01-16 20:30:00,48.8,-5.4,29.99,North,0,0.0,0.0,1,0.00,,,0.15,WUHU216HW,2013-01-17 01:30:00,
2013-01-16 20:35:00,48.8,-5.4,30.00,North,0,0.0,0.0,1,0.00,,,0.15,WUHU216HW,2013-01-17 01:35:00,
2013-01-16 20:40:00,48.8,-5.4,30.00,North,0,0.0,0.0,1,0.00,,,0.15,WUHU216HW,2013-01-17 01:40:00,
2013-01-16 20:45:00,48.8,-5.4,30.00,North,0,0.0,0.0,1,0.00,,,0.15,WUHU216HW,2013-01-17 01:45:00,
2013-01-16 20:50:00,49.0,-5.2,30.00,North,0,0.0,0.0,1,0.00,,,0.15,WUHU216HW,2013-01-17 01:50:00,
2013-01-16 20:55:00,49.0,-5.2,30.01,North,0,0.0,0.0,1,0.00,,,0.15,WUHU216HW,2013-01-17 01:55:00,
2013-01-16 21:00:00,49.0,-5.2,30.01,North,0,0.0,0.0,1,0.00,,,0.15,WUHU216HW,2013-01-17 02:00:00,
2013-01-16 21:05:00,49.0,-5.2,30.00,North,0,0.0,0.0,1,0.00,,,0.15,WUHU216HW,2013-01-17 02:05:00,
2013-01-16 21:10:00,49.0,-5.2,30.00,North,0,0.0,0.0,1,0.00,,,0.15,WUHU216HW,2013-01-17 02:10:00,
2013-01-16 21:15:00,49.0,-5.2,30.00,North,0,0.0,0.0,1,0.00,,,0.15,WUHU216HW,2013-01-17 02:15:00,
2013-01-16 21:20:00,49.0,-5.2,30.00,North,0,0.0,0.0,1,0.00,,,0.15,WUHU216HW,2013-01-17 02:20:00,
2013-01-16 21:25:00,49.0,-5.2,29.99,North,0,0.0,0.0,1,0.00,,,0.15,WUHU216HW,2013-01-17 02:25:00,
2013-01-16 21:30:00,49.0,-5.2,29.99,North,0,0.0,0.0,1,0.00,,,0.15,WUHU216HW,2013-01-17 02:30:00,
2013-01-16 21:35:00,49.0,-5.2,29.99,North,0,0.0,0.0,1,0.00,,,0.15,WUHU216HW,2013-01-17 02:35:00,
2013-01-16 21:40:00,49.0,-5.2,29.99,North,0,0.0,0.0,1,0.00,,,0.15,WUHU216HW,2013-01-17 02:40:00,
2013-01-16 21:45:00,49.1,-5.1,29.99,North,0,0.0,0.0,1,0.00,,,0.15,WUHU216HW,2013-01-17 02:45:00,
2013-01-16 21:50:00,49.1,-5.1,29.99,North,0,0.0,0.0,1,0.00,,,0.15,WUHU216HW,2013-01-17 02:50:00,
2013-01-16 21:55:00,49.1,-5.1,29.99,North,0,0.0,0.0,1,0.00,,,0.15,WUHU216HW,2013-01-17 02:55:00,
2013-01-16 22:00:00,49.1,-5.1,29.99,North,0,0.0,0.0,1,0.00,,,0.15,WUHU216HW,2013-01-17 03:00:00,
2013-01-16 22:05:00,49.1,-5.1,29.99,North,0,0.0,0.0,1,0.00,,,0.15,WUHU216HW,2013-01-17 03:05:00,
2013-01-16 22:10:00,49.1,-5.1,29.98,North,0,0.0,0.0,1,0.00,,,0.15,WUHU216HW,2013-01-17 03:10:00,
2013-01-16 22:15:00,49.1,-5.1,29.98,North,0,0.0,0.0,1,0.00,,,0.15,WUHU216HW,2013-01-17 03:15:00,
2013-01-16 22:20:00,49.1,-5.1,29.98,North,0,0.0,0.0,1,0.00,,,0.15,WUHU216HW,2013-01-17 03:20:00,
2013-01-16 22:25:00,49.1,-5.1,29.99,North,0,0.0,0.0,1,0.00,,,0.15,WUHU216HW,2013-01-17 03:25:00,
2013-01-16 22:30:00,49.1,-5.1,29.98,North,0,0.0,0.0,1,0.00,,,0.15,WUHU216HW,2013-01-17 03:30:00,
2013-01-16 22:35:00,49.3,-5.0,29.98,North,0,0.0,0.0,1,0.00,,,0.15,WUHU216HW,2013-01-17 03:35:00,
2013-01-16 22:40:00,49.3,-5.0,29.98,North,0,0.0,0.0,1,0.00,,,0.15,WUHU216HW,2013-01-17 03:40:00,
2013-01-16 22:45:00,49.3,-5.0,29.98,North,0,0.0,0.0,1,0.00,,,0.15,WUHU216HW,2013-01-17 03:45:00,
2013-01-16 22:50:00,49.3,-5.0,29.97,North,0,0.0,0.0,1,0.00,,,0.15,WUHU216HW,2013-01-17 03:50:00,
2013-01-16 22:55:00,49.3,-5.0,29.98,North,0,0.0,0.0,1,0.00,,,0.15,WUHU216HW,2013-01-17 03:55:00,
2013-01-16 23:00:00,49.3,-5.0,29.97,North,0,0.0,0.0,1,0.00,,,0.15,WUHU216HW,2013-01-17 04:00:00,
2013-01-16 23:05:00,49.3,-5.0,29.97,North,0,0.0,0.0,1,0.00,,,0.15,WUHU216HW,2013-01-17 04:05:00,
2013-01-16 23:10:00,49.3,-5.0,29.97,North,0,0.0,0.0,1,0.00,,,0.15,WUHU216HW,2013-01-17 04:10:00,
2013-01-16 23:15:00,49.3,-5.0,29.97,North,0,0.0,0.0,1,0.00,,,0.15,WUHU216HW,2013-01-17 04:15:00,
2013-01-16 23:20:00,49.3,-5.0,29.97,North,0,0.0,0.0,1,0.00,,,0.15,WUHU216HW,2013-01-17 04:20:00,
2013-01-16 23:25:00,49.3,-5.0,29.97,North,0,0.0,0.0,1,0.00,,,0.15,WUHU216HW,2013-01-17 04:25:00,
2013-01-16 23:30:00,49.3,-5.0,29.97,North,0,0.0,0.0,1,0.00,,,0.15,WUHU216HW,2013-01-17 04:30:00,
2013-01-16 23:35:00,49.5,-4.8,29.97,North,0,0.0,0.0,1,0.00,,,0.15,WUHU216HW,2013-01-17 04:35:00,
2013-01-16 23:40:00,49.5,-4.8,29.97,North,0,0.0,0.0,1,0.00,,,0.15,WUHU216HW,2013-01-17 04:40:00,
2013-01-16 23:45:00,49.5,-4.8,29.98,North,0,0.0,0.0,1,0.01,,,0.16,WUHU216HW,2013-01-17 04:45:00,
2013-01-16 23:50:00,49.5,-4.8,29.98,North,0,0.0,0.0,1,0.01,,,0.16,WUHU216HW,2013-01-17 04:50:00,
2013-01-16 23:55:00,49.5,-4.8,29.98,North,0,0.0,0.0,1,0.01,,,0.16,WUHU216HW,2013-01-17 04:55:00,